sensor_id;sensor_type;location;lat;lon;timestamp;temperature;humidity
11093;DHT22;5600;50.864;6.102;2022-12-20T00:00:33;13.20;99.90
11093;DHT22;5600;50.864;6.102;2022-12-20T00:03:34;13.30;99.90
11093;DHT22;5600;50.864;6.102;2022-12-20T00:06:35;13.30;99.90
11093;DHT22;5600;50.864;6.102;2022-12-20T00:09:36;13.30;99.90
11093;DHT22;5600;50.864;6.102;2022-12-20T00:12:37;13.30;99.90
11093;DHT22;5600;50.864;6.102;2022-12-20T00:15:37;13.30;99.90
11093;DHT22;5600;50.864;6.102;2022-12-20T00:18:39;13.30;99.90
11093;DHT22;5600;50.864;6.102;2022-12-20T00:21:40;13.30;99.90
11093;DHT22;5600;50.864;6.102;2022-12-20T00:24:41;13.30;99.90
11093;DHT22;5600;50.864;6.102;2022-12-20T00:27:41;13.20;99.90
11093;DHT22;5600;50.864;6.102;2022-12-20T00:30:42;13.20;99.90
11093;DHT22;5600;50.864;6.102;2022-12-20T00:33:48;13.20;99.90
11093;DHT22;5600;50.864;6.102;2022-12-20T00:36:49;13.20;99.90
11093;DHT22;5600;50.864;6.102;2022-12-20T00:39:50;13.20;99.90
11093;DHT22;5600;50.864;6.102;2022-12-20T00:42:50;13.20;99.90
11093;DHT22;5600;50.864;6.102;2022-12-20T00:45:51;13.20;99.90
11093;DHT22;5600;50.864;6.102;2022-12-20T00:48:53;13.20;99.90
11093;DHT22;5600;50.864;6.102;2022-12-20T00:51:54;13.20;99.90
11093;DHT22;5600;50.864;6.102;2022-12-20T00:54:54;13.20;99.90
11093;DHT22;5600;50.864;6.102;2022-12-20T00:57:55;13.20;99.90
11093;DHT22;5600;50.864;6.102;2022-12-20T01:00:56;13.20;99.90
11093;DHT22;5600;50.864;6.102;2022-12-20T01:03:57;13.20;99.90
11093;DHT22;5600;50.864;6.102;2022-12-20T01:06:58;13.10;99.90
11093;DHT22;5600;50.864;6.102;2022-12-20T01:09:59;13.00;99.90
11093;DHT22;5600;50.864;6.102;2022-12-20T01:12:59;13.00;99.90
11093;DHT22;5600;50.864;6.102;2022-12-20T01:16:24;12.90;99.90
11093;DHT22;5600;50.864;6.102;2022-12-20T01:19:24;13.00;99.90
11093;DHT22;5600;50.864;6.102;2022-12-20T01:22:25;11.90;99.90
11093;DHT22;5600;50.864;6.102;2022-12-20T01:25:26;13.00;99.90
11093;DHT22;5600;50.864;6.102;2022-12-20T01:28:27;12.90;99.90
11093;DHT22;5600;50.864;6.102;2022-12-20T01:31:28;12.80;99.90
11093;DHT22;5600;50.864;6.102;2022-12-20T01:34:29;12.80;99.90
11093;DHT22;5600;50.864;6.102;2022-12-20T01:37:30;12.80;99.90
11093;DHT22;5600;50.864;6.102;2022-12-20T01:40:31;12.70;99.90
11093;DHT22;5600;50.864;6.102;2022-12-20T01:46:52;12.80;99.90
11093;DHT22;5600;50.864;6.102;2022-12-20T01:49:54;12.60;99.90
11093;DHT22;5600;50.864;6.102;2022-12-20T01:52:55;12.60;99.90
11093;DHT22;5600;50.864;6.102;2022-12-20T01:56:03;12.60;99.90
11093;DHT22;5600;50.864;6.102;2022-12-20T01:59:04;12.60;99.90
11093;DHT22;5600;50.864;6.102;2022-12-20T02:02:07;12.60;99.90
11093;DHT22;5600;50.864;6.102;2022-12-20T02:05:09;12.60;99.90
11093;DHT22;5600;50.864;6.102;2022-12-20T02:08:12;12.60;99.90
11093;DHT22;5600;50.864;6.102;2022-12-20T02:14:41;12.60;99.90
11093;DHT22;5600;50.864;6.102;2022-12-20T02:28:07;12.60;99.90
11093;DHT22;5600;50.864;6.102;2022-12-20T02:31:13;12.60;99.90
11093;DHT22;5600;50.864;6.102;2022-12-20T02:34:17;12.60;99.90
11093;DHT22;5600;50.864;6.102;2022-12-20T02:37:21;12.60;99.90
11093;DHT22;5600;50.864;6.102;2022-12-20T02:40:26;12.50;99.90
11093;DHT22;5600;50.864;6.102;2022-12-20T02:43:29;12.30;99.90
11093;DHT22;5600;50.864;6.102;2022-12-20T02:46:49;12.30;99.90
11093;DHT22;5600;50.864;6.102;2022-12-20T02:49:51;12.30;99.90
11093;DHT22;5600;50.864;6.102;2022-12-20T02:52:53;12.30;99.90
11093;DHT22;5600;50.864;6.102;2022-12-20T02:59:38;12.20;99.90
11093;DHT22;5600;50.864;6.102;2022-12-20T03:02:42;12.20;99.90
11093;DHT22;5600;50.864;6.102;2022-12-20T03:06:02;12.30;99.90
11093;DHT22;5600;50.864;6.102;2022-12-20T03:09:04;12.30;99.90
11093;DHT22;5600;50.864;6.102;2022-12-20T03:12:08;12.30;99.90
11093;DHT22;5600;50.864;6.102;2022-12-20T03:15:11;12.30;99.90
11093;DHT22;5600;50.864;6.102;2022-12-20T03:18:12;12.20;99.90
11093;DHT22;5600;50.864;6.102;2022-12-20T03:21:13;12.20;99.90
11093;DHT22;5600;50.864;6.102;2022-12-20T03:24:14;12.20;99.90
11093;DHT22;5600;50.864;6.102;2022-12-20T03:27:15;12.10;99.90
11093;DHT22;5600;50.864;6.102;2022-12-20T03:30:16;12.10;99.90
11093;DHT22;5600;50.864;6.102;2022-12-20T03:33:17;12.10;99.90
11093;DHT22;5600;50.864;6.102;2022-12-20T03:36:18;12.10;99.90
11093;DHT22;5600;50.864;6.102;2022-12-20T03:39:22;12.10;99.90
11093;DHT22;5600;50.864;6.102;2022-12-20T03:42:27;12.00;99.90
11093;DHT22;5600;50.864;6.102;2022-12-20T03:45:28;11.90;99.90
11093;DHT22;5600;50.864;6.102;2022-12-20T03:48:28;11.80;99.90
11093;DHT22;5600;50.864;6.102;2022-12-20T03:51:29;11.70;99.90
11093;DHT22;5600;50.864;6.102;2022-12-20T03:54:30;11.60;99.90
11093;DHT22;5600;50.864;6.102;2022-12-20T03:57:39;11.40;99.90
11093;DHT22;5600;50.864;6.102;2022-12-20T04:00:51;11.30;99.90
11093;DHT22;5600;50.864;6.102;2022-12-20T04:04:14;11.20;99.90
11093;DHT22;5600;50.864;6.102;2022-12-20T04:07:15;11.20;99.90
11093;DHT22;5600;50.864;6.102;2022-12-20T04:10:19;11.20;99.90
11093;DHT22;5600;50.864;6.102;2022-12-20T04:13:20;11.10;99.90
11093;DHT22;5600;50.864;6.102;2022-12-20T04:16:24;11.10;99.90
11093;DHT22;5600;50.864;6.102;2022-12-20T04:19:26;11.20;99.90
11093;DHT22;5600;50.864;6.102;2022-12-20T04:22:27;11.30;99.90
11093;DHT22;5600;50.864;6.102;2022-12-20T04:25:35;11.30;99.90
11093;DHT22;5600;50.864;6.102;2022-12-20T04:28:36;11.50;99.90
11093;DHT22;5600;50.864;6.102;2022-12-20T04:31:37;11.50;99.90
11093;DHT22;5600;50.864;6.102;2022-12-20T04:34:38;11.50;99.90
11093;DHT22;5600;50.864;6.102;2022-12-20T04:37:39;11.60;99.90
11093;DHT22;5600;50.864;6.102;2022-12-20T04:40:40;11.60;99.90
11093;DHT22;5600;50.864;6.102;2022-12-20T04:43:42;11.60;99.90
11093;DHT22;5600;50.864;6.102;2022-12-20T04:46:42;11.60;99.90
11093;DHT22;5600;50.864;6.102;2022-12-20T04:49:47;11.70;99.90
11093;DHT22;5600;50.864;6.102;2022-12-20T04:52:47;11.80;99.90
11093;DHT22;5600;50.864;6.102;2022-12-20T04:56:08;11.80;99.90
11093;DHT22;5600;50.864;6.102;2022-12-20T04:59:09;11.80;99.90
11093;DHT22;5600;50.864;6.102;2022-12-20T05:02:13;11.90;99.90
11093;DHT22;5600;50.864;6.102;2022-12-20T05:05:29;11.90;99.90
11093;DHT22;5600;50.864;6.102;2022-12-20T05:08:31;11.90;99.90
11093;DHT22;5600;50.864;6.102;2022-12-20T05:11:32;12.00;99.90
11093;DHT22;5600;50.864;6.102;2022-12-20T05:14:33;12.00;99.90
11093;DHT22;5600;50.864;6.102;2022-12-20T05:17:34;12.10;99.90
11093;DHT22;5600;50.864;6.102;2022-12-20T05:20:35;12.20;99.90
11093;DHT22;5600;50.864;6.102;2022-12-20T05:23:37;12.20;99.90
11093;DHT22;5600;50.864;6.102;2022-12-20T05:26:58;12.30;99.90
11093;DHT22;5600;50.864;6.102;2022-12-20T05:29:59;12.30;99.90
11093;DHT22;5600;50.864;6.102;2022-12-20T05:33:02;12.30;99.90
11093;DHT22;5600;50.864;6.102;2022-12-20T05:36:05;12.40;99.90
11093;DHT22;5600;50.864;6.102;2022-12-20T05:39:05;12.40;99.90
11093;DHT22;5600;50.864;6.102;2022-12-20T05:42:09;12.40;99.90
11093;DHT22;5600;50.864;6.102;2022-12-20T05:45:10;12.40;99.90
11093;DHT22;5600;50.864;6.102;2022-12-20T05:48:20;12.50;99.90
11093;DHT22;5600;50.864;6.102;2022-12-20T05:51:21;12.50;99.90
11093;DHT22;5600;50.864;6.102;2022-12-20T05:54:31;12.50;99.90
11093;DHT22;5600;50.864;6.102;2022-12-20T05:57:38;12.50;99.90
11093;DHT22;5600;50.864;6.102;2022-12-20T06:00:40;12.60;99.90
11093;DHT22;5600;50.864;6.102;2022-12-20T06:03:41;12.70;99.90
11093;DHT22;5600;50.864;6.102;2022-12-20T06:06:46;12.70;99.90
11093;DHT22;5600;50.864;6.102;2022-12-20T06:09:51;12.70;99.90
11093;DHT22;5600;50.864;6.102;2022-12-20T06:12:54;12.80;99.90
11093;DHT22;5600;50.864;6.102;2022-12-20T06:15:56;12.80;99.90
11093;DHT22;5600;50.864;6.102;2022-12-20T06:18:57;12.90;99.90
11093;DHT22;5600;50.864;6.102;2022-12-20T06:21:58;13.00;99.90
11093;DHT22;5600;50.864;6.102;2022-12-20T06:25:06;12.90;99.90
11093;DHT22;5600;50.864;6.102;2022-12-20T06:28:09;12.80;99.90
11093;DHT22;5600;50.864;6.102;2022-12-20T06:31:10;12.90;99.90
11093;DHT22;5600;50.864;6.102;2022-12-20T06:34:16;12.80;99.90
11093;DHT22;5600;50.864;6.102;2022-12-20T06:37:17;11.50;99.90
11093;DHT22;5600;50.864;6.102;2022-12-20T06:40:18;12.80;99.90
11093;DHT22;5600;50.864;6.102;2022-12-20T06:43:18;12.80;99.90
11093;DHT22;5600;50.864;6.102;2022-12-20T06:46:20;13.70;99.90
11093;DHT22;5600;50.864;6.102;2022-12-20T06:49:21;12.80;99.90
11093;DHT22;5600;50.864;6.102;2022-12-20T06:52:23;12.80;99.90
11093;DHT22;5600;50.864;6.102;2022-12-20T06:55:27;12.80;99.90
11093;DHT22;5600;50.864;6.102;2022-12-20T06:58:28;12.80;99.90
11093;DHT22;5600;50.864;6.102;2022-12-20T07:01:29;12.80;99.90
11093;DHT22;5600;50.864;6.102;2022-12-20T07:04:30;12.80;99.90
11093;DHT22;5600;50.864;6.102;2022-12-20T07:10:36;12.80;99.90
11093;DHT22;5600;50.864;6.102;2022-12-20T07:13:37;12.80;99.90
11093;DHT22;5600;50.864;6.102;2022-12-20T07:16:37;12.90;99.90
11093;DHT22;5600;50.864;6.102;2022-12-20T07:19:41;12.80;99.90
11093;DHT22;5600;50.864;6.102;2022-12-20T07:22:42;12.80;99.90
11093;DHT22;5600;50.864;6.102;2022-12-20T07:25:51;12.80;99.90
11093;DHT22;5600;50.864;6.102;2022-12-20T07:28:51;12.80;99.90
11093;DHT22;5600;50.864;6.102;2022-12-20T07:31:52;12.90;99.90
11093;DHT22;5600;50.864;6.102;2022-12-20T07:34:53;12.80;99.90
11093;DHT22;5600;50.864;6.102;2022-12-20T07:37:54;12.90;99.90
11093;DHT22;5600;50.864;6.102;2022-12-20T07:40:54;12.90;99.90
11093;DHT22;5600;50.864;6.102;2022-12-20T07:43:55;12.90;99.90
11093;DHT22;5600;50.864;6.102;2022-12-20T07:46:58;13.50;99.90
11093;DHT22;5600;50.864;6.102;2022-12-20T07:49:59;12.80;99.90
11093;DHT22;5600;50.864;6.102;2022-12-20T07:53:02;13.00;99.90
11093;DHT22;5600;50.864;6.102;2022-12-20T07:56:05;12.90;99.90
11093;DHT22;5600;50.864;6.102;2022-12-20T07:59:07;14.00;99.90
11093;DHT22;5600;50.864;6.102;2022-12-20T08:02:12;12.90;99.90
11093;DHT22;5600;50.864;6.102;2022-12-20T08:05:15;12.90;99.90
11093;DHT22;5600;50.864;6.102;2022-12-20T08:08:17;13.00;99.90
11093;DHT22;5600;50.864;6.102;2022-12-20T08:11:19;13.00;99.90
11093;DHT22;5600;50.864;6.102;2022-12-20T08:14:21;13.00;99.90
11093;DHT22;5600;50.864;6.102;2022-12-20T08:17:22;13.00;99.90
11093;DHT22;5600;50.864;6.102;2022-12-20T08:20:23;12.90;99.90
11093;DHT22;5600;50.864;6.102;2022-12-20T08:23:24;12.90;99.90
11093;DHT22;5600;50.864;6.102;2022-12-20T08:26:25;13.00;99.90
11093;DHT22;5600;50.864;6.102;2022-12-20T08:29:26;13.10;99.90
11093;DHT22;5600;50.864;6.102;2022-12-20T08:32:26;13.00;99.90
11093;DHT22;5600;50.864;6.102;2022-12-20T08:35:27;13.10;99.90
11093;DHT22;5600;50.864;6.102;2022-12-20T08:38:29;13.10;99.90
11093;DHT22;5600;50.864;6.102;2022-12-20T08:41:30;13.10;99.90
11093;DHT22;5600;50.864;6.102;2022-12-20T08:44:31;13.10;99.90
11093;DHT22;5600;50.864;6.102;2022-12-20T08:47:32;13.10;99.90
11093;DHT22;5600;50.864;6.102;2022-12-20T08:50:32;13.10;99.90
11093;DHT22;5600;50.864;6.102;2022-12-20T08:53:34;13.10;99.90
11093;DHT22;5600;50.864;6.102;2022-12-20T08:56:35;13.10;99.90
11093;DHT22;5600;50.864;6.102;2022-12-20T08:59:35;13.10;99.90
11093;DHT22;5600;50.864;6.102;2022-12-20T09:02:36;13.00;99.90
11093;DHT22;5600;50.864;6.102;2022-12-20T09:05:43;13.00;99.90
11093;DHT22;5600;50.864;6.102;2022-12-20T09:08:45;13.10;99.90
11093;DHT22;5600;50.864;6.102;2022-12-20T09:11:46;13.00;99.90
11093;DHT22;5600;50.864;6.102;2022-12-20T09:14:47;13.00;99.90
11093;DHT22;5600;50.864;6.102;2022-12-20T09:20:48;12.90;99.90
11093;DHT22;5600;50.864;6.102;2022-12-20T09:23:50;12.80;99.90
11093;DHT22;5600;50.864;6.102;2022-12-20T09:26:51;12.80;99.90
11093;DHT22;5600;50.864;6.102;2022-12-20T09:29:52;12.90;99.90
11093;DHT22;5600;50.864;6.102;2022-12-20T09:32:53;12.90;99.90
11093;DHT22;5600;50.864;6.102;2022-12-20T09:35:54;12.90;99.90
11093;DHT22;5600;50.864;6.102;2022-12-20T09:38:55;12.90;99.90
11093;DHT22;5600;50.864;6.102;2022-12-20T09:41:56;14.10;99.90
11093;DHT22;5600;50.864;6.102;2022-12-20T09:45:04;13.00;99.90
11093;DHT22;5600;50.864;6.102;2022-12-20T09:48:18;13.00;99.90
11093;DHT22;5600;50.864;6.102;2022-12-20T10:01:24;13.40;99.90
11093;DHT22;5600;50.864;6.102;2022-12-20T10:04:29;13.50;99.90
11093;DHT22;5600;50.864;6.102;2022-12-20T10:07:54;13.60;99.90
11093;DHT22;5600;50.864;6.102;2022-12-20T10:11:08;13.70;99.90
11093;DHT22;5600;50.864;6.102;2022-12-20T10:28:19;14.00;99.90
11093;DHT22;5600;50.864;6.102;2022-12-20T10:31:26;14.00;99.90
11093;DHT22;5600;50.864;6.102;2022-12-20T10:34:27;14.10;99.90
11093;DHT22;5600;50.864;6.102;2022-12-20T10:37:27;14.10;99.90
11093;DHT22;5600;50.864;6.102;2022-12-20T10:40:38;14.30;99.90
11093;DHT22;5600;50.864;6.102;2022-12-20T10:43:45;14.20;99.90
11093;DHT22;5600;50.864;6.102;2022-12-20T10:46:50;14.30;99.90
11093;DHT22;5600;50.864;6.102;2022-12-20T10:50:07;14.20;99.90
11093;DHT22;5600;50.864;6.102;2022-12-20T10:56:16;14.40;99.90
11093;DHT22;5600;50.864;6.102;2022-12-20T11:02:25;14.60;99.90
11093;DHT22;5600;50.864;6.102;2022-12-20T11:05:26;14.60;99.90
11093;DHT22;5600;50.864;6.102;2022-12-20T11:08:29;14.60;99.90
11093;DHT22;5600;50.864;6.102;2022-12-20T11:11:31;14.70;99.90
11093;DHT22;5600;50.864;6.102;2022-12-20T11:14:34;14.60;99.90
11093;DHT22;5600;50.864;6.102;2022-12-20T11:17:40;14.50;99.90
11093;DHT22;5600;50.864;6.102;2022-12-20T11:34:09;14.00;99.90
11093;DHT22;5600;50.864;6.102;2022-12-20T11:37:26;13.90;99.90
11093;DHT22;5600;50.864;6.102;2022-12-20T11:40:53;13.70;99.90
11093;DHT22;5600;50.864;6.102;2022-12-20T11:47:46;13.50;99.90
11093;DHT22;5600;50.864;6.102;2022-12-20T11:51:01;13.20;99.90
11093;DHT22;5600;50.864;6.102;2022-12-20T11:57:28;12.90;99.90
11093;DHT22;5600;50.864;6.102;2022-12-20T12:00:33;12.80;99.90
11093;DHT22;5600;50.864;6.102;2022-12-20T12:03:40;12.80;99.90
11093;DHT22;5600;50.864;6.102;2022-12-20T12:10:20;12.60;99.90
11093;DHT22;5600;50.864;6.102;2022-12-20T12:13:27;13.40;99.90
11093;DHT22;5600;50.864;6.102;2022-12-20T12:16:33;12.30;99.90
11093;DHT22;5600;50.864;6.102;2022-12-20T12:19:40;12.10;99.90
11093;DHT22;5600;50.864;6.102;2022-12-20T12:22:43;12.00;99.90
11093;DHT22;5600;50.864;6.102;2022-12-20T12:25:45;12.00;99.90
11093;DHT22;5600;50.864;6.102;2022-12-20T12:28:52;12.00;99.90
11093;DHT22;5600;50.864;6.102;2022-12-20T12:31:58;12.00;99.90
11093;DHT22;5600;50.864;6.102;2022-12-20T12:41:57;12.10;99.90
11093;DHT22;5600;50.864;6.102;2022-12-20T12:45:18;12.10;99.90
11093;DHT22;5600;50.864;6.102;2022-12-20T12:48:35;12.20;99.90
11093;DHT22;5600;50.864;6.102;2022-12-20T12:51:40;12.20;99.90
11093;DHT22;5600;50.864;6.102;2022-12-20T12:54:42;12.30;99.90
11093;DHT22;5600;50.864;6.102;2022-12-20T12:57:55;12.30;99.90
11093;DHT22;5600;50.864;6.102;2022-12-20T13:01:03;12.50;99.90
11093;DHT22;5600;50.864;6.102;2022-12-20T13:13:34;12.80;99.90
11093;DHT22;5600;50.864;6.102;2022-12-20T13:16:35;12.90;99.90
11093;DHT22;5600;50.864;6.102;2022-12-20T13:19:39;12.90;99.90
11093;DHT22;5600;50.864;6.102;2022-12-20T13:26:49;12.90;99.90
11093;DHT22;5600;50.864;6.102;2022-12-20T13:29:56;12.80;99.90
11093;DHT22;5600;50.864;6.102;2022-12-20T13:33:43;12.70;99.90
11093;DHT22;5600;50.864;6.102;2022-12-20T13:36:44;12.70;99.90
11093;DHT22;5600;50.864;6.102;2022-12-20T13:39:47;12.50;99.90
11093;DHT22;5600;50.864;6.102;2022-12-20T13:42:50;12.30;99.90
11093;DHT22;5600;50.864;6.102;2022-12-20T13:52:31;12.00;99.90
11093;DHT22;5600;50.864;6.102;2022-12-20T13:55:38;11.90;99.90
11093;DHT22;5600;50.864;6.102;2022-12-20T13:58:43;12.00;99.90
11093;DHT22;5600;50.864;6.102;2022-12-20T14:01:49;12.00;99.90
11093;DHT22;5600;50.864;6.102;2022-12-20T14:04:57;11.90;99.90
11093;DHT22;5600;50.864;6.102;2022-12-20T14:08:12;11.90;99.90
11093;DHT22;5600;50.864;6.102;2022-12-20T14:11:16;11.80;99.90
11093;DHT22;5600;50.864;6.102;2022-12-20T14:14:21;11.70;99.90
11093;DHT22;5600;50.864;6.102;2022-12-20T14:17:29;11.60;99.90
11093;DHT22;5600;50.864;6.102;2022-12-20T14:20:34;11.60;99.90
11093;DHT22;5600;50.864;6.102;2022-12-20T14:26:41;11.50;99.90
11093;DHT22;5600;50.864;6.102;2022-12-20T14:29:47;11.50;99.90
11093;DHT22;5600;50.864;6.102;2022-12-20T14:32:49;11.50;99.90
11093;DHT22;5600;50.864;6.102;2022-12-20T14:35:50;11.40;99.90
11093;DHT22;5600;50.864;6.102;2022-12-20T14:38:51;11.30;99.90
11093;DHT22;5600;50.864;6.102;2022-12-20T14:42:00;11.30;99.90
11093;DHT22;5600;50.864;6.102;2022-12-20T14:48:16;11.00;99.90
11093;DHT22;5600;50.864;6.102;2022-12-20T14:51:20;11.00;99.90
11093;DHT22;5600;50.864;6.102;2022-12-20T14:54:26;11.00;99.90
11093;DHT22;5600;50.864;6.102;2022-12-20T15:00:37;11.00;99.90
11093;DHT22;5600;50.864;6.102;2022-12-20T15:03:51;11.00;99.90
11093;DHT22;5600;50.864;6.102;2022-12-20T15:06:52;10.90;99.90
11093;DHT22;5600;50.864;6.102;2022-12-20T15:09:53;10.90;99.90
11093;DHT22;5600;50.864;6.102;2022-12-20T15:12:53;10.90;99.90
11093;DHT22;5600;50.864;6.102;2022-12-20T15:15:54;10.90;99.90
11093;DHT22;5600;50.864;6.102;2022-12-20T15:18:59;10.90;99.90
11093;DHT22;5600;50.864;6.102;2022-12-20T15:22:01;10.90;99.90
11093;DHT22;5600;50.864;6.102;2022-12-20T15:25:13;11.00;99.90
11093;DHT22;5600;50.864;6.102;2022-12-20T15:28:19;11.20;99.90
11093;DHT22;5600;50.864;6.102;2022-12-20T15:31:21;11.20;99.90
11093;DHT22;5600;50.864;6.102;2022-12-20T15:34:36;11.20;99.90
11093;DHT22;5600;50.864;6.102;2022-12-20T15:37:36;11.10;99.90
11093;DHT22;5600;50.864;6.102;2022-12-20T15:40:38;11.20;99.90
11093;DHT22;5600;50.864;6.102;2022-12-20T15:43:39;11.30;99.90
11093;DHT22;5600;50.864;6.102;2022-12-20T15:46:40;11.40;99.90
11093;DHT22;5600;50.864;6.102;2022-12-20T15:49:41;11.30;99.90
11093;DHT22;5600;50.864;6.102;2022-12-20T15:52:42;11.30;99.90
11093;DHT22;5600;50.864;6.102;2022-12-20T15:55:43;11.40;99.90
11093;DHT22;5600;50.864;6.102;2022-12-20T15:58:45;11.40;99.90
11093;DHT22;5600;50.864;6.102;2022-12-20T16:01:47;11.40;99.90
11093;DHT22;5600;50.864;6.102;2022-12-20T16:04:48;11.40;99.90
11093;DHT22;5600;50.864;6.102;2022-12-20T16:07:49;11.40;99.90
11093;DHT22;5600;50.864;6.102;2022-12-20T16:10:51;11.40;99.90
11093;DHT22;5600;50.864;6.102;2022-12-20T16:13:53;11.40;99.90
11093;DHT22;5600;50.864;6.102;2022-12-20T16:16:54;11.40;99.90
11093;DHT22;5600;50.864;6.102;2022-12-20T16:19:54;11.30;99.90
11093;DHT22;5600;50.864;6.102;2022-12-20T16:22:55;11.30;99.90
11093;DHT22;5600;50.864;6.102;2022-12-20T16:25:56;11.30;99.90
11093;DHT22;5600;50.864;6.102;2022-12-20T16:28:56;11.30;99.90
11093;DHT22;5600;50.864;6.102;2022-12-20T16:31:57;11.30;99.90
11093;DHT22;5600;50.864;6.102;2022-12-20T16:34:58;11.30;99.90
11093;DHT22;5600;50.864;6.102;2022-12-20T16:37:59;11.30;99.90
11093;DHT22;5600;50.864;6.102;2022-12-20T16:41:12;11.20;99.90
11093;DHT22;5600;50.864;6.102;2022-12-20T16:44:14;11.30;99.90
11093;DHT22;5600;50.864;6.102;2022-12-20T16:47:15;11.30;99.90
11093;DHT22;5600;50.864;6.102;2022-12-20T16:50:16;11.30;99.90
11093;DHT22;5600;50.864;6.102;2022-12-20T16:53:18;11.40;99.90
11093;DHT22;5600;50.864;6.102;2022-12-20T16:56:34;11.40;99.90
11093;DHT22;5600;50.864;6.102;2022-12-20T16:59:35;11.40;99.90
11093;DHT22;5600;50.864;6.102;2022-12-20T17:02:35;11.50;99.90
11093;DHT22;5600;50.864;6.102;2022-12-20T17:05:36;11.40;99.90
11093;DHT22;5600;50.864;6.102;2022-12-20T17:08:39;11.50;99.90
11093;DHT22;5600;50.864;6.102;2022-12-20T17:11:39;11.60;99.90
11093;DHT22;5600;50.864;6.102;2022-12-20T17:14:40;11.60;99.90
11093;DHT22;5600;50.864;6.102;2022-12-20T17:17:41;11.60;99.90
11093;DHT22;5600;50.864;6.102;2022-12-20T17:20:41;11.70;99.90
11093;DHT22;5600;50.864;6.102;2022-12-20T17:23:42;11.80;99.90
11093;DHT22;5600;50.864;6.102;2022-12-20T17:26:43;11.90;99.90
11093;DHT22;5600;50.864;6.102;2022-12-20T17:29:44;12.00;99.90
11093;DHT22;5600;50.864;6.102;2022-12-20T17:32:44;12.10;99.90
11093;DHT22;5600;50.864;6.102;2022-12-20T17:35:45;12.10;99.90
11093;DHT22;5600;50.864;6.102;2022-12-20T17:38:46;12.10;99.90
11093;DHT22;5600;50.864;6.102;2022-12-20T17:41:51;12.10;99.90
11093;DHT22;5600;50.864;6.102;2022-12-20T17:44:53;12.10;99.90
11093;DHT22;5600;50.864;6.102;2022-12-20T17:47:54;12.00;99.90
11093;DHT22;5600;50.864;6.102;2022-12-20T17:50:54;11.90;99.90
11093;DHT22;5600;50.864;6.102;2022-12-20T17:53:57;11.90;99.90
11093;DHT22;5600;50.864;6.102;2022-12-20T17:56:58;11.80;99.90
11093;DHT22;5600;50.864;6.102;2022-12-20T17:59:59;11.70;99.90
11093;DHT22;5600;50.864;6.102;2022-12-20T18:02:59;11.70;99.90
11093;DHT22;5600;50.864;6.102;2022-12-20T18:06:04;11.70;99.90
11093;DHT22;5600;50.864;6.102;2022-12-20T18:09:11;11.60;99.90
11093;DHT22;5600;50.864;6.102;2022-12-20T18:12:12;11.50;99.90
11093;DHT22;5600;50.864;6.102;2022-12-20T18:15:14;11.50;99.90
11093;DHT22;5600;50.864;6.102;2022-12-20T18:18:14;11.40;99.90
11093;DHT22;5600;50.864;6.102;2022-12-20T18:21:16;11.30;99.90
11093;DHT22;5600;50.864;6.102;2022-12-20T18:24:18;11.10;99.90
11093;DHT22;5600;50.864;6.102;2022-12-20T18:27:20;11.00;99.90
11093;DHT22;5600;50.864;6.102;2022-12-20T18:30:21;11.00;99.90
11093;DHT22;5600;50.864;6.102;2022-12-20T18:33:22;11.00;99.90
11093;DHT22;5600;50.864;6.102;2022-12-20T18:36:27;11.10;99.90
11093;DHT22;5600;50.864;6.102;2022-12-20T18:39:28;11.10;99.90
11093;DHT22;5600;50.864;6.102;2022-12-20T18:42:29;11.10;99.90
11093;DHT22;5600;50.864;6.102;2022-12-20T18:45:29;11.10;99.90
11093;DHT22;5600;50.864;6.102;2022-12-20T18:48:31;11.30;99.90
11093;DHT22;5600;50.864;6.102;2022-12-20T18:51:33;11.30;99.90
11093;DHT22;5600;50.864;6.102;2022-12-20T18:54:37;11.30;99.90
11093;DHT22;5600;50.864;6.102;2022-12-20T18:57:38;11.30;99.90
11093;DHT22;5600;50.864;6.102;2022-12-20T19:00:38;11.30;99.90
11093;DHT22;5600;50.864;6.102;2022-12-20T19:03:39;11.40;99.90
11093;DHT22;5600;50.864;6.102;2022-12-20T19:06:40;11.40;99.90
11093;DHT22;5600;50.864;6.102;2022-12-20T19:09:41;11.40;99.90
11093;DHT22;5600;50.864;6.102;2022-12-20T19:12:41;11.40;99.90
11093;DHT22;5600;50.864;6.102;2022-12-20T19:15:43;11.40;99.90
11093;DHT22;5600;50.864;6.102;2022-12-20T19:18:44;11.30;99.90
11093;DHT22;5600;50.864;6.102;2022-12-20T19:21:45;11.30;99.90
11093;DHT22;5600;50.864;6.102;2022-12-20T19:24:45;11.20;99.90
11093;DHT22;5600;50.864;6.102;2022-12-20T19:27:46;11.30;99.90
11093;DHT22;5600;50.864;6.102;2022-12-20T19:30:47;11.20;99.90
11093;DHT22;5600;50.864;6.102;2022-12-20T19:33:49;11.20;99.90
11093;DHT22;5600;50.864;6.102;2022-12-20T19:36:50;11.10;99.90
11093;DHT22;5600;50.864;6.102;2022-12-20T19:39:52;11.10;99.90
11093;DHT22;5600;50.864;6.102;2022-12-20T19:42:52;11.10;99.90
11093;DHT22;5600;50.864;6.102;2022-12-20T19:45:55;11.10;99.90
11093;DHT22;5600;50.864;6.102;2022-12-20T19:48:58;11.00;99.90
11093;DHT22;5600;50.864;6.102;2022-12-20T19:51:59;11.10;99.90
11093;DHT22;5600;50.864;6.102;2022-12-20T19:54:59;11.00;99.90
11093;DHT22;5600;50.864;6.102;2022-12-20T19:58:00;11.00;99.90
11093;DHT22;5600;50.864;6.102;2022-12-20T20:01:03;11.00;99.90
11093;DHT22;5600;50.864;6.102;2022-12-20T20:04:04;11.00;99.90
11093;DHT22;5600;50.864;6.102;2022-12-20T20:07:05;10.00;99.90
11093;DHT22;5600;50.864;6.102;2022-12-20T20:10:07;10.90;99.90
11093;DHT22;5600;50.864;6.102;2022-12-20T20:13:09;10.90;99.90
11093;DHT22;5600;50.864;6.102;2022-12-20T20:16:11;10.80;99.90
11093;DHT22;5600;50.864;6.102;2022-12-20T20:19:12;10.80;99.90
11093;DHT22;5600;50.864;6.102;2022-12-20T20:22:12;10.80;99.90
11093;DHT22;5600;50.864;6.102;2022-12-20T20:25:13;10.90;99.90
11093;DHT22;5600;50.864;6.102;2022-12-20T20:28:14;10.90;99.90
11093;DHT22;5600;50.864;6.102;2022-12-20T20:31:16;10.80;99.90
11093;DHT22;5600;50.864;6.102;2022-12-20T20:34:17;10.80;99.90
11093;DHT22;5600;50.864;6.102;2022-12-20T20:37:17;10.90;99.90
11093;DHT22;5600;50.864;6.102;2022-12-20T20:40:18;10.80;99.90
11093;DHT22;5600;50.864;6.102;2022-12-20T20:43:20;10.80;99.90
11093;DHT22;5600;50.864;6.102;2022-12-20T20:46:21;10.80;99.90
11093;DHT22;5600;50.864;6.102;2022-12-20T20:49:22;10.70;99.90
11093;DHT22;5600;50.864;6.102;2022-12-20T20:52:22;10.80;99.90
11093;DHT22;5600;50.864;6.102;2022-12-20T20:55:23;10.70;99.90
11093;DHT22;5600;50.864;6.102;2022-12-20T20:58:24;10.70;99.90
11093;DHT22;5600;50.864;6.102;2022-12-20T21:01:25;10.70;99.90
11093;DHT22;5600;50.864;6.102;2022-12-20T21:04:26;10.70;99.90
11093;DHT22;5600;50.864;6.102;2022-12-20T21:07:26;10.70;99.90
11093;DHT22;5600;50.864;6.102;2022-12-20T21:10:27;10.60;99.90
11093;DHT22;5600;50.864;6.102;2022-12-20T21:13:27;10.70;99.90
11093;DHT22;5600;50.864;6.102;2022-12-20T21:16:28;10.70;99.90
11093;DHT22;5600;50.864;6.102;2022-12-20T21:19:29;10.70;99.90
11093;DHT22;5600;50.864;6.102;2022-12-20T21:22:30;10.70;99.90
11093;DHT22;5600;50.864;6.102;2022-12-20T21:25:31;10.60;99.90
11093;DHT22;5600;50.864;6.102;2022-12-20T21:31:33;10.70;99.90
11093;DHT22;5600;50.864;6.102;2022-12-20T21:34:33;10.60;99.90